createdAt,value
2023-05-04T00:00:58.027Z,8.10
2023-05-04T00:03:26.913Z,7.53
2023-05-04T00:05:55.597Z,7.30
2023-05-04T00:08:24.181Z,7.27
2023-05-04T00:10:54.495Z,7.20
2023-05-04T00:13:22.975Z,6.87
2023-05-04T00:15:51.453Z,7.00
2023-05-04T00:18:20.387Z,7.57
2023-05-04T00:20:49.064Z,6.83
2023-05-04T00:23:17.652Z,7.83
2023-05-04T00:25:46.542Z,7.47
2023-05-04T00:28:16.727Z,6.90
2023-05-04T00:30:45.510Z,6.60
2023-05-04T00:33:14.462Z,6.97
2023-05-04T00:35:43.013Z,6.00
2023-05-04T00:38:11.750Z,6.83
2023-05-04T00:40:40.926Z,6.63
2023-05-04T00:43:10.121Z,6.80
2023-05-04T00:45:40.483Z,7.07
2023-05-04T00:48:10.308Z,7.37
2023-05-04T00:50:38.865Z,8.23
2023-05-04T00:53:10.074Z,6.63
2023-05-04T00:55:40.372Z,7.60
2023-05-04T00:58:09.693Z,6.47
2023-05-04T01:00:39.644Z,6.33
2023-05-04T01:03:08.499Z,6.70
2023-05-04T01:05:39.861Z,7.90
2023-05-04T01:08:14.050Z,7.67
2023-05-04T01:10:48.588Z,7.10
2023-05-04T01:13:17.846Z,7.03
2023-05-04T01:15:48.327Z,6.70
2023-05-04T01:18:17.718Z,7.27
2023-05-04T01:20:46.260Z,7.03
2023-05-04T01:23:16.653Z,6.73
2023-05-04T01:25:55.157Z,6.80
2023-05-04T01:28:28.990Z,7.37
2023-05-04T01:30:59.212Z,7.00
2023-05-04T01:33:29.062Z,7.17
2023-05-04T01:35:57.878Z,7.67
2023-05-04T01:38:29.143Z,7.27
2023-05-04T01:40:58.082Z,8.00
2023-05-04T01:43:27.725Z,8.80
2023-05-04T01:45:56.693Z,8.17
2023-05-04T01:48:25.125Z,7.90
2023-05-04T01:50:55.630Z,7.77
2023-05-04T01:53:24.334Z,6.80
2023-05-04T01:55:54.395Z,6.93
2023-05-04T01:58:23.075Z,6.77
2023-05-04T02:00:51.880Z,6.87
2023-05-04T02:03:20.382Z,7.13
2023-05-04T02:05:49.294Z,6.90
2023-05-04T02:08:17.883Z,6.77
2023-05-04T02:10:46.629Z,5.70
2023-05-04T02:13:16.829Z,6.50
2023-05-04T02:15:45.696Z,7.63
2023-05-04T02:18:14.138Z,6.03
2023-05-04T02:20:42.831Z,6.93
2023-05-04T02:23:11.735Z,7.13
2023-05-04T02:25:41.953Z,6.80
2023-05-04T02:28:11.126Z,6.23
2023-05-04T02:30:40.945Z,5.90
2023-05-04T02:33:10.083Z,6.40
2023-05-04T02:35:38.737Z,6.63
2023-05-04T02:38:08.257Z,6.63
2023-05-04T02:40:36.777Z,6.23
2023-05-04T02:43:05.398Z,6.43
2023-05-04T02:45:36.778Z,6.20
2023-05-04T02:48:07.740Z,6.67
2023-05-04T02:50:36.501Z,6.30
2023-05-04T02:53:05.058Z,7.67
2023-05-04T02:55:33.957Z,7.30
2023-05-04T02:58:02.642Z,6.93
2023-05-04T03:00:31.265Z,6.67
2023-05-04T03:02:59.944Z,7.77
2023-05-04T03:05:30.214Z,6.80
2023-05-04T03:07:58.816Z,7.57
2023-05-04T03:10:27.570Z,6.83
2023-05-04T03:12:56.088Z,8.37
2023-05-04T03:15:24.872Z,7.53
2023-05-04T03:17:53.514Z,8.27
2023-05-04T03:20:22.650Z,7.70
2023-05-04T03:22:52.581Z,7.60
2023-05-04T03:25:22.082Z,7.87
2023-05-04T03:27:51.250Z,9.47
2023-05-04T03:30:20.220Z,8.90
2023-05-04T03:32:50.754Z,10.40
2023-05-04T03:35:24.759Z,10.30
2023-05-04T03:37:57.109Z,10.87
2023-05-04T03:40:25.961Z,9.73
2023-05-04T03:42:56.048Z,9.27
2023-05-04T03:45:28.451Z,8.67
2023-05-04T03:47:57.230Z,9.60
2023-05-04T03:50:27.053Z,8.77
2023-05-04T03:52:57.258Z,9.33
2023-05-04T03:55:28.102Z,8.60
2023-05-04T03:57:56.756Z,9.03
2023-05-04T04:00:25.409Z,9.97
2023-05-04T04:03:02.377Z,8.53
2023-05-04T04:05:31.495Z,9.27
2023-05-04T04:08:01.555Z,10.30
2023-05-04T04:10:30.223Z,8.13
2023-05-04T04:12:58.808Z,10.97
2023-05-04T04:15:27.937Z,12.27
2023-05-04T04:17:56.541Z,9.77
2023-05-04T04:20:25.241Z,8.93
2023-05-04T04:22:53.948Z,8.47
2023-05-04T04:25:24.270Z,8.10
2023-05-04T04:27:53.236Z,6.93
2023-05-04T04:30:21.929Z,7.17
2023-05-04T04:32:50.648Z,7.20
2023-05-04T04:35:19.185Z,6.47
2023-05-04T04:37:47.572Z,5.80
2023-05-04T04:40:16.496Z,7.57
2023-05-04T04:42:46.584Z,12.00
2023-05-04T04:45:15.788Z,5.70
2023-05-04T04:47:45.369Z,29.43
2023-05-04T04:50:14.355Z,25.27
2023-05-04T04:52:42.871Z,11.57
2023-05-04T04:55:11.649Z,6.33
2023-05-04T04:57:40.164Z,7.60
2023-05-04T05:00:11.462Z,5.37
2023-05-04T05:02:40.344Z,6.93
2023-05-04T05:05:09.419Z,8.00
2023-05-04T05:07:38.053Z,4.80
2023-05-04T05:10:08.549Z,4.53
2023-05-04T05:12:37.300Z,4.70
2023-05-04T05:15:07.523Z,4.53
2023-05-04T05:17:38.359Z,4.43
2023-05-04T05:20:10.920Z,4.47
2023-05-04T05:22:40.020Z,4.53
2023-05-04T05:25:09.724Z,3.90
2023-05-04T05:27:38.407Z,4.53
2023-05-04T05:30:08.175Z,4.60
2023-05-04T05:32:38.778Z,3.80
2023-05-04T05:35:09.417Z,3.70
2023-05-04T05:37:38.346Z,3.90
2023-05-04T05:40:09.488Z,6.13
2023-05-04T05:42:38.202Z,8.47
2023-05-04T05:45:08.122Z,6.47
2023-05-04T05:47:38.285Z,4.40
2023-05-04T05:50:08.716Z,5.03
2023-05-04T05:52:37.434Z,4.23
2023-05-04T05:55:06.870Z,5.13
2023-05-04T05:57:35.370Z,5.30
2023-05-04T06:00:05.342Z,4.50
2023-05-04T06:02:42.163Z,4.80
2023-05-04T06:05:11.695Z,5.20
2023-05-04T06:07:40.667Z,6.43
2023-05-04T06:10:10.738Z,3.60
2023-05-04T06:12:39.438Z,5.47
2023-05-04T06:15:09.753Z,3.33
2023-05-04T06:17:38.602Z,4.18
2023-05-04T06:20:10.272Z,4.15
2023-05-04T06:22:39.065Z,4.47
2023-05-04T06:25:08.496Z,2.78
2023-05-04T06:27:37.311Z,3.60
2023-05-04T06:30:07.846Z,3.50
2023-05-04T06:32:37.007Z,3.50
2023-05-04T06:35:06.536Z,2.92
2023-05-04T06:37:36.811Z,3.40
2023-05-04T06:40:07.284Z,3.53
2023-05-04T06:42:35.966Z,3.60
2023-05-04T06:45:05.018Z,3.78
2023-05-04T06:47:36.731Z,3.38
2023-05-04T06:50:09.583Z,3.60
2023-05-04T06:52:41.282Z,2.92
2023-05-04T06:55:10.160Z,3.13
2023-05-04T06:57:38.711Z,3.20
2023-05-04T07:00:09.011Z,2.95
2023-05-04T07:02:37.653Z,3.15
2023-05-04T07:05:06.729Z,2.50
2023-05-04T07:07:36.308Z,2.53
2023-05-04T07:10:07.456Z,2.97
2023-05-04T07:12:35.916Z,3.13
2023-05-04T07:15:06.839Z,3.03
2023-05-04T07:17:35.568Z,2.60
2023-05-04T07:20:04.691Z,3.30
2023-05-04T07:22:33.630Z,2.70
2023-05-04T07:25:03.177Z,3.10
2023-05-04T07:27:35.049Z,3.30
2023-05-04T07:30:06.268Z,3.20
2023-05-04T07:32:35.080Z,3.05
2023-05-04T07:35:03.621Z,3.25
2023-05-04T07:37:32.325Z,2.53
2023-05-04T07:40:01.510Z,2.63
2023-05-04T07:42:30.282Z,3.30
2023-05-04T07:45:00.257Z,2.38
2023-05-04T07:47:28.851Z,2.83
2023-05-04T07:49:57.519Z,3.00
2023-05-04T07:52:26.088Z,3.50
2023-05-04T07:54:54.836Z,3.33
2023-05-04T07:57:23.731Z,3.20
2023-05-04T07:59:55.501Z,2.88
2023-05-04T08:02:25.988Z,2.60
2023-05-04T08:04:54.897Z,2.88
2023-05-04T08:07:23.476Z,2.50
2023-05-04T08:09:55.719Z,2.97
2023-05-04T08:12:27.068Z,3.60
2023-05-04T08:14:55.618Z,2.97
2023-05-04T08:17:25.910Z,2.83
2023-05-04T08:19:54.935Z,3.38
2023-05-04T08:22:23.400Z,7.53
2023-05-04T08:24:51.948Z,3.25
2023-05-04T08:27:20.762Z,4.30
2023-05-04T08:29:49.422Z,2.50
2023-05-04T08:32:18.881Z,2.75
2023-05-04T08:34:53.223Z,2.80
2023-05-04T08:37:22.351Z,2.85
2023-05-04T08:39:51.302Z,2.67
2023-05-04T08:42:28.682Z,3.63
2023-05-04T08:44:58.413Z,3.20
2023-05-04T08:47:27.717Z,2.97
2023-05-04T08:49:57.942Z,2.87
2023-05-04T08:52:27.581Z,2.97
2023-05-04T08:54:57.799Z,2.67
2023-05-04T08:57:27.134Z,2.77
2023-05-04T08:59:57.491Z,2.67
2023-05-04T09:02:26.235Z,3.67
2023-05-04T09:04:55.365Z,2.90
2023-05-04T09:07:25.352Z,3.33
2023-05-04T09:09:54.110Z,3.13
2023-05-04T09:12:22.916Z,3.40
2023-05-04T09:14:51.584Z,3.20
2023-05-04T09:17:25.790Z,3.33
2023-05-04T09:20:01.734Z,3.03
2023-05-04T09:22:32.026Z,2.73
2023-05-04T09:25:09.226Z,3.00
2023-05-04T09:27:37.799Z,2.70
2023-05-04T09:30:07.844Z,2.87
2023-05-04T09:32:39.189Z,3.13
2023-05-04T09:35:10.765Z,2.80
2023-05-04T09:37:47.314Z,3.50
2023-05-04T09:40:16.533Z,3.20
2023-05-04T09:42:45.454Z,2.80
2023-05-04T09:45:15.017Z,3.00
2023-05-04T09:47:44.302Z,3.03
2023-05-04T09:50:14.810Z,3.10
2023-05-04T09:52:46.888Z,3.07
2023-05-04T09:55:16.861Z,3.30
2023-05-04T09:57:47.516Z,3.17
2023-05-04T10:00:17.871Z,2.70
2023-05-04T10:02:48.100Z,2.60
2023-05-04T10:05:18.744Z,2.70
2023-05-04T10:07:48.951Z,2.83
2023-05-04T10:10:17.906Z,2.27
2023-05-04T10:12:46.675Z,2.63
2023-05-04T10:15:16.216Z,3.00
2023-05-04T10:17:55.775Z,3.60
2023-05-04T10:20:34.823Z,2.90
2023-05-04T10:23:21.361Z,3.00
2023-05-04T10:26:20.428Z,2.53
2023-05-04T10:29:00.455Z,2.50
2023-05-04T10:31:38.772Z,4.90
2023-05-04T10:34:07.541Z,4.37
2023-05-04T10:36:39.398Z,5.20
2023-05-04T10:39:19.268Z,5.73
2023-05-04T10:42:04.209Z,5.40
2023-05-04T10:44:34.546Z,6.20
2023-05-04T10:47:05.568Z,5.57
2023-05-04T10:49:35.203Z,4.90
2023-05-04T10:52:11.572Z,6.07
2023-05-04T10:54:42.612Z,5.40
2023-05-04T10:57:12.782Z,5.20
2023-05-04T10:59:41.852Z,5.27
2023-05-04T11:02:10.660Z,5.10
2023-05-04T11:04:40.123Z,5.63
2023-05-04T11:07:09.127Z,5.83
2023-05-04T11:09:40.870Z,6.20
2023-05-04T11:12:11.498Z,5.40
2023-05-04T11:14:43.353Z,5.20
2023-05-04T11:19:52.862Z,6.00
2023-05-04T11:22:21.998Z,4.83
2023-05-04T11:24:53.302Z,5.30
2023-05-04T11:27:24.463Z,5.27
2023-05-04T11:29:59.659Z,5.20
2023-05-04T11:32:38.145Z,4.50
2023-05-04T11:35:10.035Z,4.80
2023-05-04T11:37:40.666Z,5.10
2023-05-04T11:40:16.827Z,5.27
2023-05-04T11:42:45.900Z,5.40
2023-05-04T11:45:17.276Z,4.73
2023-05-04T11:47:46.643Z,5.40
2023-05-04T11:50:17.297Z,5.50
2023-05-04T11:52:46.382Z,5.50
2023-05-04T11:55:27.663Z,5.73
2023-05-04T11:57:59.647Z,5.47
2023-05-04T12:00:40.124Z,5.37
2023-05-04T12:03:10.238Z,5.87
2023-05-04T12:05:38.875Z,6.50
2023-05-04T12:08:12.383Z,5.80
2023-05-04T12:10:42.418Z,6.20
2023-05-04T12:13:18.034Z,5.83
2023-05-04T12:15:46.634Z,6.60
2023-05-04T12:18:29.873Z,6.80
2023-05-04T12:20:58.472Z,6.00
2023-05-04T12:23:27.403Z,6.33
2023-05-04T12:25:58.491Z,5.97
2023-05-04T12:28:27.855Z,5.97
2023-05-04T12:30:56.604Z,5.07
2023-05-04T12:33:25.360Z,5.40
2023-05-04T12:35:54.290Z,5.27
2023-05-04T12:38:24.173Z,5.73
2023-05-04T12:40:52.863Z,5.30
2023-05-04T12:43:23.896Z,4.67
2023-05-04T12:45:52.665Z,5.37
2023-05-04T12:48:21.913Z,5.60
2023-05-04T12:50:51.753Z,5.43
2023-05-04T12:53:22.421Z,5.53
2023-05-04T12:55:51.085Z,5.70
2023-05-04T12:58:19.753Z,5.27
2023-05-04T13:00:50.239Z,6.17
2023-05-04T13:03:19.022Z,5.97
2023-05-04T13:05:48.642Z,6.47
2023-05-04T13:08:18.485Z,5.87
2023-05-04T13:10:47.274Z,5.30
2023-05-04T13:13:17.968Z,4.80
2023-05-04T13:15:47.781Z,5.13
2023-05-04T13:18:18.004Z,4.97
2023-05-04T13:20:46.962Z,4.87
2023-05-04T13:23:15.803Z,3.90
2023-05-04T13:25:44.483Z,4.97
2023-05-04T13:28:13.064Z,5.07
2023-05-04T13:30:41.526Z,4.43
2023-05-04T13:33:20.663Z,5.10
2023-05-04T13:35:59.072Z,5.13
2023-05-04T13:38:27.917Z,4.80
2023-05-04T13:40:56.664Z,4.60
2023-05-04T13:43:25.641Z,4.83
2023-05-04T13:45:54.162Z,4.50
2023-05-04T13:48:22.720Z,4.40
2023-05-04T13:50:51.656Z,4.60
2023-05-04T13:53:21.651Z,4.83
2023-05-04T13:55:50.353Z,4.47
2023-05-04T13:58:18.772Z,2.80
2023-05-04T14:00:47.496Z,3.03
2023-05-04T14:03:16.208Z,2.43
2023-05-04T14:05:45.296Z,3.70
2023-05-04T14:08:14.354Z,3.80
2023-05-04T14:10:44.635Z,4.50
2023-05-04T14:13:13.419Z,2.33
2023-05-04T14:15:42.444Z,2.60
2023-05-04T14:18:14.090Z,2.17
2023-05-04T14:20:42.918Z,3.20
2023-05-04T14:23:11.543Z,3.63
2023-05-04T14:25:42.081Z,4.43
2023-05-04T14:28:12.065Z,4.50
2023-05-04T14:30:40.665Z,4.13
2023-05-04T14:33:10.501Z,4.40
2023-05-04T14:35:42.966Z,4.27
2023-05-04T14:38:11.396Z,3.70
2023-05-04T14:40:40.094Z,3.63
2023-05-04T14:43:08.674Z,3.93
2023-05-04T14:45:39.672Z,4.10
2023-05-04T14:48:08.892Z,3.70
2023-05-04T14:50:37.711Z,3.77
2023-05-04T14:53:06.416Z,3.50
2023-05-04T14:55:39.976Z,3.10
2023-05-04T14:58:09.418Z,2.97
2023-05-04T15:00:39.640Z,3.57
2023-05-04T15:03:08.258Z,3.73
2023-05-04T15:05:37.161Z,3.13
2023-05-04T15:08:06.586Z,2.70
2023-05-04T15:10:35.264Z,3.40
2023-05-04T15:13:03.834Z,3.60
2023-05-04T15:15:32.430Z,3.13
2023-05-04T15:18:02.754Z,2.90
2023-05-04T15:20:31.698Z,3.20
2023-05-04T15:23:00.519Z,3.20
2023-05-04T15:25:29.349Z,3.40
2023-05-04T15:27:58.068Z,4.40
2023-05-04T15:30:27.031Z,4.33
2023-05-04T15:32:55.702Z,4.17
2023-05-04T15:35:25.767Z,4.40
2023-05-04T15:37:54.408Z,4.30
2023-05-04T15:40:23.025Z,3.93
2023-05-04T15:42:51.760Z,5.33
2023-05-04T15:45:21.060Z,4.93
2023-05-04T15:47:49.726Z,4.87
2023-05-04T15:50:18.316Z,4.13
2023-05-04T15:52:48.402Z,4.00
2023-05-04T15:55:26.021Z,3.83
2023-05-04T15:57:55.183Z,3.90
2023-05-04T16:00:24.061Z,3.67
2023-05-04T16:02:52.626Z,4.07
2023-05-04T16:05:21.752Z,3.00
2023-05-04T16:07:53.279Z,3.23
2023-05-04T16:10:22.254Z,3.30
2023-05-04T16:12:50.847Z,2.90
2023-05-04T16:15:19.770Z,3.57
2023-05-04T16:17:48.539Z,2.87
2023-05-04T16:20:17.757Z,2.80
2023-05-04T16:22:46.220Z,3.27
2023-05-04T16:25:16.202Z,3.20
2023-05-04T16:27:44.840Z,2.97
2023-05-04T16:30:15.490Z,2.87
2023-05-04T16:32:44.414Z,3.10
2023-05-04T16:35:13.233Z,2.87
2023-05-04T16:37:41.722Z,3.50
2023-05-04T16:40:11.862Z,3.33
2023-05-04T16:42:42.044Z,4.03
2023-05-04T16:45:13.649Z,3.87
2023-05-04T16:47:42.842Z,4.30
2023-05-04T16:50:12.043Z,3.10
2023-05-04T16:52:41.079Z,3.47
2023-05-04T16:55:12.202Z,3.07
2023-05-04T16:57:42.398Z,2.77
2023-05-04T17:00:13.255Z,3.00
2023-05-04T17:02:42.584Z,2.87
2023-05-04T17:05:11.578Z,2.93
2023-05-04T17:07:43.343Z,2.67
2023-05-04T17:10:12.395Z,3.07
2023-05-04T17:12:42.751Z,3.00
2023-05-04T17:15:12.559Z,2.57
2023-05-04T17:17:41.420Z,3.57
2023-05-04T17:20:14.936Z,2.60
2023-05-04T17:22:43.990Z,2.53
2023-05-04T17:25:13.403Z,3.00
2023-05-04T17:27:44.351Z,2.73
2023-05-04T17:30:14.331Z,2.77
2023-05-04T17:32:43.121Z,2.23
2023-05-04T17:35:20.843Z,2.73
2023-05-04T17:37:52.597Z,2.67
2023-05-04T17:40:22.308Z,2.30
2023-05-04T17:42:52.146Z,2.30
2023-05-04T17:45:21.224Z,2.70
2023-05-04T17:47:52.265Z,2.50
2023-05-04T17:50:22.195Z,2.43
2023-05-04T17:52:54.944Z,2.67
2023-05-04T17:55:24.910Z,1.97
2023-05-04T17:57:55.716Z,1.80
2023-05-04T18:00:24.877Z,2.30
2023-05-04T18:02:53.669Z,2.20
2023-05-04T18:05:22.644Z,1.40
2023-05-04T18:07:51.344Z,1.43
2023-05-04T18:10:20.405Z,1.40
2023-05-04T18:12:49.085Z,1.37
2023-05-04T18:15:19.209Z,1.67
2023-05-04T18:17:48.776Z,1.27
2023-05-04T18:20:17.530Z,1.27
2023-05-04T18:22:46.653Z,1.80
2023-05-04T18:25:16.257Z,1.47
2023-05-04T18:27:45.143Z,1.10
2023-05-04T18:30:14.353Z,1.80
2023-05-04T18:32:44.386Z,1.30
2023-05-04T18:35:13.085Z,1.40
2023-05-04T18:37:41.717Z,1.40
2023-05-04T18:40:11.569Z,1.50
2023-05-04T18:42:40.466Z,1.27
2023-05-04T18:45:11.685Z,1.17
2023-05-04T18:47:40.453Z,1.30
2023-05-04T18:50:11.578Z,1.30
2023-05-04T18:52:39.973Z,1.07
2023-05-04T18:55:09.317Z,1.43
2023-05-04T18:57:38.090Z,1.30
2023-05-04T19:00:08.967Z,1.20
2023-05-04T19:02:38.587Z,1.10
2023-05-04T19:05:07.615Z,0.97
2023-05-04T19:07:37.452Z,1.33
2023-05-04T19:10:07.933Z,1.30
2023-05-04T19:12:36.916Z,1.00
2023-05-04T19:15:07.030Z,0.90
2023-05-04T19:17:35.982Z,1.03
2023-05-04T19:20:04.871Z,1.07
2023-05-04T19:22:33.780Z,0.93
2023-05-04T19:25:04.813Z,1.10
2023-05-04T19:27:33.620Z,1.13
2023-05-04T19:30:02.930Z,1.00
2023-05-04T19:32:32.762Z,1.00
2023-05-04T19:35:01.383Z,1.07
2023-05-04T19:37:29.921Z,1.40
2023-05-04T19:39:59.217Z,1.00
2023-05-04T19:42:32.147Z,1.10
2023-05-04T19:45:01.174Z,0.93
2023-05-04T19:47:29.828Z,1.10
2023-05-04T19:49:58.462Z,1.03
2023-05-04T19:52:27.101Z,1.10
2023-05-04T19:54:55.571Z,1.57
2023-05-04T19:57:24.301Z,1.27
2023-05-04T19:59:55.822Z,1.00
2023-05-04T20:02:24.914Z,1.30
2023-05-04T20:04:54.088Z,1.20
2023-05-04T20:07:22.871Z,1.37
2023-05-04T20:09:51.570Z,1.30
2023-05-04T20:12:20.179Z,1.30
2023-05-04T20:14:48.693Z,1.47
2023-05-04T20:17:18.825Z,1.67
2023-05-04T20:19:48.303Z,1.80
2023-05-04T20:22:16.970Z,1.27
2023-05-04T20:24:45.446Z,1.80
2023-05-04T20:27:14.001Z,1.83
2023-05-04T20:29:42.707Z,1.60
2023-05-04T20:32:11.394Z,1.60
2023-05-04T20:34:43.159Z,1.60
2023-05-04T20:37:11.564Z,2.00
2023-05-04T20:39:40.034Z,1.77
2023-05-04T20:42:08.553Z,1.50
2023-05-04T20:44:37.330Z,2.00
2023-05-04T20:47:06.083Z,2.27
2023-05-04T20:49:34.579Z,1.63
2023-05-04T20:52:05.143Z,1.50
2023-05-04T20:54:33.876Z,1.73
2023-05-04T20:57:02.708Z,1.90
2023-05-04T20:59:31.514Z,1.90
2023-05-04T21:02:00.327Z,1.90
2023-05-04T21:04:28.914Z,1.80
2023-05-04T21:06:58.524Z,1.63
2023-05-04T21:09:28.596Z,1.87
2023-05-04T21:11:58.399Z,1.73
2023-05-04T21:14:27.064Z,1.83
2023-05-04T21:16:55.634Z,2.27
2023-05-04T21:19:24.454Z,2.27
2023-05-04T21:21:53.437Z,2.13
2023-05-04T21:24:22.370Z,2.83
2023-05-04T21:26:52.881Z,2.23
2023-05-04T21:29:21.439Z,2.73
2023-05-04T21:31:50.319Z,2.57
2023-05-04T21:34:19.205Z,2.47
2023-05-04T21:36:47.907Z,2.40
2023-05-04T21:39:16.869Z,2.23
2023-05-04T21:41:45.521Z,2.27
2023-05-04T21:44:15.588Z,2.30
2023-05-04T21:46:44.273Z,2.27
2023-05-04T21:49:12.891Z,2.93
2023-05-04T21:51:42.408Z,2.63
2023-05-04T21:54:10.941Z,2.70
2023-05-04T21:56:42.098Z,2.70
2023-05-04T21:59:10.746Z,2.63
2023-05-04T22:01:42.459Z,2.83
2023-05-04T22:04:11.095Z,2.40
2023-05-04T22:06:39.648Z,3.23
2023-05-04T22:09:09.108Z,3.13
2023-05-04T22:11:37.969Z,3.43
2023-05-04T22:14:06.800Z,2.73
2023-05-04T22:16:35.635Z,3.57
2023-05-04T22:19:05.699Z,3.80
2023-05-04T22:21:34.305Z,3.33
2023-05-04T22:24:02.736Z,3.93
2023-05-04T22:26:31.278Z,3.70
2023-05-04T22:28:59.778Z,3.90
2023-05-04T22:31:28.529Z,3.77
2023-05-04T22:33:57.128Z,3.87
2023-05-04T22:36:27.740Z,4.37
2023-05-04T22:38:56.314Z,4.37
2023-05-04T22:41:25.385Z,3.93
2023-05-04T22:43:54.007Z,5.30
2023-05-04T22:46:22.588Z,5.37
2023-05-04T22:48:51.209Z,5.30
2023-05-04T22:51:19.973Z,5.07
2023-05-04T22:53:51.182Z,5.77
2023-05-04T22:56:19.889Z,5.83
2023-05-04T22:58:48.467Z,5.47
2023-05-04T23:01:18.159Z,5.77
2023-05-04T23:03:47.008Z,5.50
2023-05-04T23:06:15.788Z,5.63
2023-05-04T23:08:45.466Z,5.83
2023-05-04T23:11:15.579Z,5.80
2023-05-04T23:13:44.361Z,5.60
2023-05-04T23:16:12.924Z,6.17
2023-05-04T23:18:41.610Z,6.30
2023-05-04T23:21:10.269Z,6.30
2023-05-04T23:23:38.999Z,6.20
2023-05-04T23:26:07.794Z,6.63
2023-05-04T23:28:37.662Z,5.67
2023-05-04T23:31:06.538Z,6.50
2023-05-04T23:33:35.074Z,6.10
2023-05-04T23:36:03.682Z,6.60
2023-05-04T23:38:32.336Z,7.10
2023-05-04T23:41:03.490Z,6.17
2023-05-04T23:43:32.542Z,6.03
2023-05-04T23:46:03.676Z,6.00
2023-05-04T23:48:33.155Z,6.47
2023-05-04T23:51:03.701Z,6.23
2023-05-04T23:53:32.557Z,6.70
2023-05-04T23:56:03.501Z,6.00
2023-05-04T23:58:34.003Z,6.30
